Time,TemperatureF,DewpointF,PressureIn,WindDirection,WindDirectionDegrees,WindSpeedMPH,WindSpeedGustMPH,Humidity,HourlyPrecipIn,Conditions,Clouds,dailyrainin,SoftwareType,DateUTC
2013-02-11 00:29:00,4.9,-0.7,30.25,NNE,17,0.0,0.0,77,0.00,,---,0.00,VWS V14.00,2013-02-11 05:29:00,
2013-02-11 00:59:00,5.3,0.8,30.22,NE,44,2.0,2.0,81,0.00,,---,0.00,VWS V14.00,2013-02-11 05:59:00,
2013-02-11 01:29:00,10.7,2.5,30.21,NE,53,5.0,6.0,69,0.00,,---,0.00,VWS V14.00,2013-02-11 06:29:00,
2013-02-11 01:59:00,11.8,2.7,30.19,ENE,61,1.0,3.0,66,0.00,,---,0.00,VWS V14.00,2013-02-11 06:59:00,
2013-02-11 02:29:00,12.6,2.8,30.18,ENE,65,7.0,7.0,64,0.00,,---,0.00,VWS V14.00,2013-02-11 07:29:00,
2013-02-11 02:59:00,12.8,3.6,30.15,ENE,66,4.0,7.0,66,0.00,,---,0.00,VWS V14.00,2013-02-11 07:59:00,
2013-02-11 03:29:00,13.3,3.4,30.12,ENE,63,1.0,3.0,64,0.00,,---,0.00,VWS V14.00,2013-02-11 08:29:00,
2013-02-11 03:59:00,14.6,4.0,30.10,NE,50,2.0,2.0,62,0.00,,---,0.00,VWS V14.00,2013-02-11 08:59:00,
2013-02-11 04:29:00,15.1,3.7,30.07,ENE,73,2.0,7.0,60,0.00,,---,0.00,VWS V14.00,2013-02-11 09:29:00,
2013-02-11 04:59:00,15.3,3.9,30.04,East,86,1.0,7.0,60,0.00,,---,0.00,VWS V14.00,2013-02-11 09:59:00,
2013-02-11 05:29:00,16.3,4.9,30.05,West,268,0.0,3.0,60,0.00,,---,0.00,VWS V14.00,2013-02-11 10:29:00,
2013-02-11 05:59:00,17.0,4.0,30.02,East,91,0.0,5.0,56,0.00,,---,0.00,VWS V14.00,2013-02-11 10:59:00,
2013-02-11 06:29:00,17.4,5.2,30.00,ENE,57,2.0,6.0,58,0.00,,---,0.00,VWS V14.00,2013-02-11 11:29:00,
2013-02-11 06:59:00,17.3,5.1,29.97,ENE,69,3.0,4.0,58,0.00,,---,0.00,VWS V14.00,2013-02-11 11:59:00,
2013-02-11 07:29:00,17.5,4.9,29.93,ENE,64,7.0,9.0,57,0.00,,---,0.00,VWS V14.00,2013-02-11 12:29:00,
2013-02-11 07:59:00,17.9,5.6,29.93,NNE,26,6.0,9.0,58,0.00,,---,0.00,VWS V14.00,2013-02-11 12:59:00,
2013-02-11 08:29:00,18.1,6.2,29.90,ENE,58,4.0,9.0,59,0.00,,---,0.00,VWS V14.00,2013-02-11 13:29:00,
2013-02-11 08:59:00,19.0,7.1,29.88,ENE,78,0.0,2.0,59,0.00,,---,0.00,VWS V14.00,2013-02-11 13:59:00,
2013-02-11 09:29:00,19.4,7.4,29.87,ENE,71,2.0,3.0,59,0.00,,---,0.00,VWS V14.00,2013-02-11 14:29:00,
2013-02-11 09:59:00,19.5,10.0,29.87,East,89,2.0,6.0,66,0.00,,---,0.00,VWS V14.00,2013-02-11 14:59:00,
2013-02-11 10:29:00,20.1,11.6,29.84,East,84,2.0,3.0,69,0.00,,---,0.00,VWS V14.00,2013-02-11 15:29:00,
2013-02-11 10:59:00,21.1,14.1,29.82,East,83,0.0,1.0,74,0.00,,---,0.00,VWS V14.00,2013-02-11 15:59:00,
2013-02-11 11:29:00,20.1,16.0,29.80,ENE,76,2.0,4.0,84,0.02,,---,0.02,VWS V14.00,2013-02-11 16:29:00,
2013-02-11 11:59:00,21.4,17.3,29.76,NE,48,3.0,7.0,84,0.02,,---,0.02,VWS V14.00,2013-02-11 16:59:00,
2013-02-11 12:29:00,22.4,18.6,29.74,ENE,69,2.0,2.0,85,0.02,,---,0.02,VWS V14.00,2013-02-11 17:29:00,
2013-02-11 12:59:00,22.7,19.1,29.72,NE,56,2.0,5.0,86,0.01,,---,0.02,VWS V14.00,2013-02-11 17:59:00,
2013-02-11 13:29:00,23.0,20.0,29.71,East,85,2.0,6.0,88,0.00,,---,0.02,VWS V14.00,2013-02-11 18:29:00,
2013-02-11 13:59:00,22.7,20.5,29.69,ENE,74,3.0,3.0,91,0.00,,---,0.02,VWS V14.00,2013-02-11 18:59:00,
2013-02-11 14:29:00,23.4,21.7,29.67,East,94,1.0,3.0,93,0.00,,---,0.02,VWS V14.00,2013-02-11 19:29:00,
2013-02-11 14:59:00,23.9,22.2,29.67,East,93,1.0,5.0,93,0.00,,---,0.02,VWS V14.00,2013-02-11 19:59:00,
2013-02-11 15:29:00,24.3,22.3,29.65,East,80,2.0,3.0,92,0.00,,---,0.02,VWS V14.00,2013-02-11 20:29:00,
2013-02-11 15:59:00,24.9,22.9,29.64,ENE,67,3.0,3.0,92,0.02,,---,0.04,VWS V14.00,2013-02-11 20:59:00,
2013-02-11 16:29:00,25.1,23.1,29.62,ENE,69,1.0,3.0,92,0.03,,---,0.06,VWS V14.00,2013-02-11 21:29:00,
2013-02-11 16:59:00,25.0,23.0,29.62,ENE,78,1.0,2.0,92,0.04,,---,0.06,VWS V14.00,2013-02-11 21:59:00,
2013-02-11 17:29:00,25.1,23.1,29.61,ENE,68,3.0,3.0,92,0.05,,---,0.09,VWS V14.00,2013-02-11 22:29:00,
2013-02-11 17:59:00,25.3,23.3,29.60,SSE,157,2.0,2.0,92,0.05,,---,0.10,VWS V14.00,2013-02-11 22:59:00,
2013-02-11 18:29:00,25.2,23.2,29.60,NE,49,0.0,2.0,92,0.04,,---,0.10,VWS V14.00,2013-02-11 23:29:00,
2013-02-11 18:59:00,25.6,23.3,29.59,ENE,67,0.0,1.0,91,0.02,,---,0.10,VWS V14.00,2013-02-11 23:59:00,
2013-02-11 19:29:00,25.3,23.3,29.57,ENE,58,4.0,5.0,92,0.00,,---,0.10,VWS V14.00,2013-02-12 00:29:00,
2013-02-11 19:59:00,25.2,23.5,29.56,NE,39,1.0,2.0,93,0.00,,---,0.10,VWS V14.00,2013-02-12 00:59:00,
2013-02-11 20:29:00,26.0,24.8,29.55,ENE,65,3.0,4.0,95,0.00,,---,0.10,VWS V14.00,2013-02-12 01:29:00,
2013-02-11 20:59:00,26.9,25.7,29.54,NNE,31,3.0,5.0,95,0.00,,---,0.10,VWS V14.00,2013-02-12 01:59:00,
2013-02-11 21:29:00,27.8,26.6,29.52,WSW,240,1.0,1.0,95,0.00,,---,0.10,VWS V14.00,2013-02-12 02:29:00,
2013-02-11 21:59:00,29.6,28.6,29.52,SE,142,1.0,1.0,96,0.02,,---,0.12,VWS V14.00,2013-02-12 02:59:00,
2013-02-11 22:29:00,30.8,29.8,29.52,WSW,248,2.0,5.0,96,0.04,,---,0.14,VWS V14.00,2013-02-12 03:29:00,
2013-02-11 22:59:00,31.4,30.1,29.52,NW,319,0.0,2.0,95,0.05,,---,0.15,VWS V14.00,2013-02-12 03:59:00,
2013-02-11 23:29:00,31.7,30.4,29.52,NNW,336,0.0,1.0,95,0.03,,---,0.15,VWS V14.00,2013-02-12 04:29:00,
2013-02-11 23:59:00,31.6,30.1,29.52,WSW,238,0.0,5.0,94,0.02,,---,0.16,VWS V14.00,2013-02-12 04:59:00,